Terminal Aerodrome Forecast
Issued by NWS

Home | Current Version | Previous Version | Text Only | Print | Product List | Glossary On
Versions: 1 2 3 4 5 6 7 8 9 10 11 12 13
990
FTPA31 PHFO 281132
TAFHKO
TAF
PHKO 281132Z 2812/2912 11006KT P6SM FEW035 BKN050
     FM282100 22009KT P6SM SCT050 SCT110
     FM290600 08006KT P6SM FEW035 BKN050=

USA.gov is the U.S. government's official web portal to all federal, state and local government web resources and services.